sensor_id;sensor_type;location;lat;lon;timestamp;P1;durP1;ratioP1;P2;durP2;ratioP2
74612;SDS011;63119;51.788;8.824;2022-09-09T00:03:57;2.50;;;0.93;;
74612;SDS011;63119;51.788;8.824;2022-09-09T00:06:32;4.55;;;1.08;;
74612;SDS011;63119;51.788;8.824;2022-09-09T00:09:01;3.70;;;1.55;;
74612;SDS011;63119;51.788;8.824;2022-09-09T00:11:43;3.33;;;1.08;;
74612;SDS011;63119;51.788;8.824;2022-09-09T00:20:12;2.70;;;1.08;;
74612;SDS011;63119;51.788;8.824;2022-09-09T00:25:26;2.70;;;0.93;;
74612;SDS011;63119;51.788;8.824;2022-09-09T00:28:01;1.83;;;1.00;;
74612;SDS011;63119;51.788;8.824;2022-09-09T00:30:29;3.60;;;1.05;;
74612;SDS011;63119;51.788;8.824;2022-09-09T00:33:05;2.35;;;0.90;;
74612;SDS011;63119;51.788;8.824;2022-09-09T00:35:37;2.70;;;1.10;;
74612;SDS011;63119;51.788;8.824;2022-09-09T00:38:17;3.22;;;1.13;;
74612;SDS011;63119;51.788;8.824;2022-09-09T00:48:50;2.83;;;1.13;;
74612;SDS011;63119;51.788;8.824;2022-09-09T00:57:26;4.85;;;1.40;;
74612;SDS011;63119;51.788;8.824;2022-09-09T01:02:59;5.63;;;1.48;;
74612;SDS011;63119;51.788;8.824;2022-09-09T01:11:20;2.58;;;1.30;;
74612;SDS011;63119;51.788;8.824;2022-09-09T01:13:49;3.65;;;1.33;;
74612;SDS011;63119;51.788;8.824;2022-09-09T01:16:23;5.97;;;1.40;;
74612;SDS011;63119;51.788;8.824;2022-09-09T01:18:51;3.17;;;1.48;;
74612;SDS011;63119;51.788;8.824;2022-09-09T01:21:39;4.15;;;1.52;;
74612;SDS011;63119;51.788;8.824;2022-09-09T01:26:51;6.53;;;1.50;;
74612;SDS011;63119;51.788;8.824;2022-09-09T01:29:21;4.00;;;1.58;;
74612;SDS011;63119;51.788;8.824;2022-09-09T01:32:00;3.85;;;1.38;;
74612;SDS011;63119;51.788;8.824;2022-09-09T01:34:28;5.20;;;1.80;;
74612;SDS011;63119;51.788;8.824;2022-09-09T01:39:35;5.00;;;1.50;;
74612;SDS011;63119;51.788;8.824;2022-09-09T01:42:03;4.88;;;1.73;;
74612;SDS011;63119;51.788;8.824;2022-09-09T01:44:31;3.92;;;1.40;;
74612;SDS011;63119;51.788;8.824;2022-09-09T01:46:57;6.03;;;1.55;;
74612;SDS011;63119;51.788;8.824;2022-09-09T01:49:22;3.88;;;1.60;;
74612;SDS011;63119;51.788;8.824;2022-09-09T01:51:49;6.80;;;1.73;;
74612;SDS011;63119;51.788;8.824;2022-09-09T01:54:18;4.20;;;1.65;;
74612;SDS011;63119;51.788;8.824;2022-09-09T02:04:47;5.25;;;1.65;;
74612;SDS011;63119;51.788;8.824;2022-09-09T02:09:47;4.78;;;1.40;;
74612;SDS011;63119;51.788;8.824;2022-09-09T02:12:17;4.45;;;1.67;;
74612;SDS011;63119;51.788;8.824;2022-09-09T02:14:50;4.10;;;1.13;;
74612;SDS011;63119;51.788;8.824;2022-09-09T02:17:26;4.88;;;1.70;;
74612;SDS011;63119;51.788;8.824;2022-09-09T02:20:14;3.92;;;1.30;;
74612;SDS011;63119;51.788;8.824;2022-09-09T02:22:41;4.78;;;1.75;;
74612;SDS011;63119;51.788;8.824;2022-09-09T02:25:10;5.57;;;1.50;;
74612;SDS011;63119;51.788;8.824;2022-09-09T02:27:40;3.83;;;1.27;;
74612;SDS011;63119;51.788;8.824;2022-09-09T02:30:08;4.05;;;1.50;;
74612;SDS011;63119;51.788;8.824;2022-09-09T02:32:35;4.45;;;1.48;;
74612;SDS011;63119;51.788;8.824;2022-09-09T02:35:05;3.65;;;1.48;;
74612;SDS011;63119;51.788;8.824;2022-09-09T02:37:36;5.38;;;1.70;;
74612;SDS011;63119;51.788;8.824;2022-09-09T02:40:04;5.28;;;1.67;;
74612;SDS011;63119;51.788;8.824;2022-09-09T02:42:31;3.42;;;1.60;;
74612;SDS011;63119;51.788;8.824;2022-09-09T02:44:56;4.70;;;1.60;;
74612;SDS011;63119;51.788;8.824;2022-09-09T02:47:35;2.65;;;1.30;;
74612;SDS011;63119;51.788;8.824;2022-09-09T02:50:08;4.43;;;1.67;;
74612;SDS011;63119;51.788;8.824;2022-09-09T02:58:15;2.83;;;1.25;;
74612;SDS011;63119;51.788;8.824;2022-09-09T03:00:42;4.53;;;1.52;;
74612;SDS011;63119;51.788;8.824;2022-09-09T03:03:10;4.03;;;1.77;;
74612;SDS011;63119;51.788;8.824;2022-09-09T03:05:35;2.08;;;1.40;;
74612;SDS011;63119;51.788;8.824;2022-09-09T03:08:02;3.45;;;1.35;;
74612;SDS011;63119;51.788;8.824;2022-09-09T03:10:29;2.53;;;1.40;;
74612;SDS011;63119;51.788;8.824;2022-09-09T03:12:54;3.55;;;1.42;;
74612;SDS011;63119;51.788;8.824;2022-09-09T03:15:20;4.15;;;1.50;;
74612;SDS011;63119;51.788;8.824;2022-09-09T03:17:46;2.55;;;1.25;;
74612;SDS011;63119;51.788;8.824;2022-09-09T03:20:12;3.67;;;1.42;;
74612;SDS011;63119;51.788;8.824;2022-09-09T03:22:37;3.45;;;1.70;;
74612;SDS011;63119;51.788;8.824;2022-09-09T03:25:03;3.13;;;1.27;;
74612;SDS011;63119;51.788;8.824;2022-09-09T03:27:29;3.90;;;1.30;;
74612;SDS011;63119;51.788;8.824;2022-09-09T03:29:55;3.53;;;1.70;;
74612;SDS011;63119;51.788;8.824;2022-09-09T03:32:21;2.30;;;1.50;;
74612;SDS011;63119;51.788;8.824;2022-09-09T03:34:47;4.22;;;1.55;;
74612;SDS011;63119;51.788;8.824;2022-09-09T03:37:14;4.30;;;1.80;;
74612;SDS011;63119;51.788;8.824;2022-09-09T03:39:40;2.50;;;1.30;;
74612;SDS011;63119;51.788;8.824;2022-09-09T03:42:06;4.60;;;1.90;;
74612;SDS011;63119;51.788;8.824;2022-09-09T03:44:31;2.20;;;1.40;;
74612;SDS011;63119;51.788;8.824;2022-09-09T03:46:56;2.27;;;1.43;;
74612;SDS011;63119;51.788;8.824;2022-09-09T03:49:25;3.65;;;1.45;;
74612;SDS011;63119;51.788;8.824;2022-09-09T03:51:51;6.70;;;1.85;;
74612;SDS011;63119;51.788;8.824;2022-09-09T03:54:16;4.10;;;1.53;;
74612;SDS011;63119;51.788;8.824;2022-09-09T03:56:41;3.67;;;1.70;;
74612;SDS011;63119;51.788;8.824;2022-09-09T03:59:06;3.07;;;1.50;;
74612;SDS011;63119;51.788;8.824;2022-09-09T04:01:33;2.85;;;1.40;;
74612;SDS011;63119;51.788;8.824;2022-09-09T04:03:59;6.43;;;1.73;;
74612;SDS011;63119;51.788;8.824;2022-09-09T04:06:24;3.03;;;1.50;;
74612;SDS011;63119;51.788;8.824;2022-09-09T04:08:50;4.65;;;1.30;;
74612;SDS011;63119;51.788;8.824;2022-09-09T04:11:17;5.68;;;2.05;;
74612;SDS011;63119;51.788;8.824;2022-09-09T04:13:42;3.42;;;1.55;;
74612;SDS011;63119;51.788;8.824;2022-09-09T04:16:09;4.32;;;1.75;;
74612;SDS011;63119;51.788;8.824;2022-09-09T04:18:36;2.15;;;1.50;;
74612;SDS011;63119;51.788;8.824;2022-09-09T04:21:01;3.40;;;1.43;;
74612;SDS011;63119;51.788;8.824;2022-09-09T04:23:28;3.30;;;1.70;;
74612;SDS011;63119;51.788;8.824;2022-09-09T04:25:56;3.42;;;1.60;;
74612;SDS011;63119;51.788;8.824;2022-09-09T04:28:24;4.93;;;1.88;;
74612;SDS011;63119;51.788;8.824;2022-09-09T04:30:50;3.40;;;1.67;;
74612;SDS011;63119;51.788;8.824;2022-09-09T04:33:17;5.28;;;1.70;;
74612;SDS011;63119;51.788;8.824;2022-09-09T04:35:46;4.30;;;1.85;;
74612;SDS011;63119;51.788;8.824;2022-09-09T04:38:13;2.60;;;1.75;;
74612;SDS011;63119;51.788;8.824;2022-09-09T04:40:41;2.70;;;1.40;;
74612;SDS011;63119;51.788;8.824;2022-09-09T04:43:08;4.03;;;1.38;;
74612;SDS011;63119;51.788;8.824;2022-09-09T04:45:34;4.72;;;1.48;;
74612;SDS011;63119;51.788;8.824;2022-09-09T04:48:00;5.18;;;1.60;;
74612;SDS011;63119;51.788;8.824;2022-09-09T04:50:25;6.78;;;1.70;;
74612;SDS011;63119;51.788;8.824;2022-09-09T04:52:51;3.67;;;1.13;;
74612;SDS011;63119;51.788;8.824;2022-09-09T04:55:16;4.47;;;1.60;;
74612;SDS011;63119;51.788;8.824;2022-09-09T04:57:41;3.37;;;1.27;;
74612;SDS011;63119;51.788;8.824;2022-09-09T05:00:07;4.20;;;1.70;;
74612;SDS011;63119;51.788;8.824;2022-09-09T05:02:32;4.60;;;1.25;;
74612;SDS011;63119;51.788;8.824;2022-09-09T05:04:58;3.17;;;1.25;;
74612;SDS011;63119;51.788;8.824;2022-09-09T05:07:24;3.70;;;1.30;;
74612;SDS011;63119;51.788;8.824;2022-09-09T05:09:51;6.30;;;1.40;;
74612;SDS011;63119;51.788;8.824;2022-09-09T05:12:16;4.82;;;1.55;;
74612;SDS011;63119;51.788;8.824;2022-09-09T05:14:43;4.95;;;1.58;;
74612;SDS011;63119;51.788;8.824;2022-09-09T05:17:09;2.50;;;1.20;;
74612;SDS011;63119;51.788;8.824;2022-09-09T05:19:35;2.72;;;1.20;;
74612;SDS011;63119;51.788;8.824;2022-09-09T05:22:00;2.47;;;1.38;;
74612;SDS011;63119;51.788;8.824;2022-09-09T05:24:26;3.27;;;1.40;;
74612;SDS011;63119;51.788;8.824;2022-09-09T05:26:51;2.30;;;1.20;;
74612;SDS011;63119;51.788;8.824;2022-09-09T05:29:16;2.73;;;1.23;;
74612;SDS011;63119;51.788;8.824;2022-09-09T05:31:44;3.33;;;1.50;;
74612;SDS011;63119;51.788;8.824;2022-09-09T05:34:10;3.08;;;1.45;;
74612;SDS011;63119;51.788;8.824;2022-09-09T05:36:35;4.87;;;1.83;;
74612;SDS011;63119;51.788;8.824;2022-09-09T05:39:00;6.07;;;1.70;;
74612;SDS011;63119;51.788;8.824;2022-09-09T05:41:26;5.22;;;1.92;;
74612;SDS011;63119;51.788;8.824;2022-09-09T05:43:52;6.90;;;1.67;;
74612;SDS011;63119;51.788;8.824;2022-09-09T05:46:18;2.35;;;1.58;;
74612;SDS011;63119;51.788;8.824;2022-09-09T05:48:46;3.47;;;1.50;;
74612;SDS011;63119;51.788;8.824;2022-09-09T05:51:12;4.50;;;1.30;;
74612;SDS011;63119;51.788;8.824;2022-09-09T05:53:41;2.40;;;1.35;;
74612;SDS011;63119;51.788;8.824;2022-09-09T05:56:16;3.10;;;1.67;;
74612;SDS011;63119;51.788;8.824;2022-09-09T05:58:44;3.20;;;1.17;;
74612;SDS011;63119;51.788;8.824;2022-09-09T06:01:21;3.00;;;1.10;;
74612;SDS011;63119;51.788;8.824;2022-09-09T06:03:53;4.32;;;1.40;;
74612;SDS011;63119;51.788;8.824;2022-09-09T06:06:20;3.17;;;1.00;;
74612;SDS011;63119;51.788;8.824;2022-09-09T06:08:47;2.25;;;0.80;;
74612;SDS011;63119;51.788;8.824;2022-09-09T06:11:16;2.45;;;0.95;;
74612;SDS011;63119;51.788;8.824;2022-09-09T06:13:44;2.33;;;1.00;;
74612;SDS011;63119;51.788;8.824;2022-09-09T06:16:10;5.25;;;1.10;;
74612;SDS011;63119;51.788;8.824;2022-09-09T06:18:37;3.90;;;1.00;;
74612;SDS011;63119;51.788;8.824;2022-09-09T06:21:04;1.88;;;0.90;;
74612;SDS011;63119;51.788;8.824;2022-09-09T06:23:31;4.03;;;1.00;;
74612;SDS011;63119;51.788;8.824;2022-09-09T06:26:16;3.13;;;1.20;;
74612;SDS011;63119;51.788;8.824;2022-09-09T06:28:44;5.25;;;1.20;;
74612;SDS011;63119;51.788;8.824;2022-09-09T06:31:11;2.63;;;1.08;;
74612;SDS011;63119;51.788;8.824;2022-09-09T06:33:39;3.53;;;0.90;;
74612;SDS011;63119;51.788;8.824;2022-09-09T06:36:15;4.25;;;1.30;;
74612;SDS011;63119;51.788;8.824;2022-09-09T06:38:44;4.82;;;1.15;;
74612;SDS011;63119;51.788;8.824;2022-09-09T06:41:11;3.78;;;1.10;;
74612;SDS011;63119;51.788;8.824;2022-09-09T06:43:38;4.65;;;1.30;;
74612;SDS011;63119;51.788;8.824;2022-09-09T06:46:04;2.60;;;1.00;;
74612;SDS011;63119;51.788;8.824;2022-09-09T06:48:40;3.22;;;1.58;;
74612;SDS011;63119;51.788;8.824;2022-09-09T06:53:34;3.85;;;1.10;;
74612;SDS011;63119;51.788;8.824;2022-09-09T06:56:46;5.38;;;1.70;;
74612;SDS011;63119;51.788;8.824;2022-09-09T06:58:57;2.55;;;1.20;;
74612;SDS011;63119;51.788;8.824;2022-09-09T07:01:28;4.95;;;1.17;;
74612;SDS011;63119;51.788;8.824;2022-09-09T07:03:55;4.40;;;1.70;;
74612;SDS011;63119;51.788;8.824;2022-09-09T07:06:32;4.20;;;1.15;;
74612;SDS011;63119;51.788;8.824;2022-09-09T07:09:00;4.00;;;0.93;;
74612;SDS011;63119;51.788;8.824;2022-09-09T07:11:29;3.38;;;1.40;;
74612;SDS011;63119;51.788;8.824;2022-09-09T07:13:57;6.20;;;1.25;;
74612;SDS011;63119;51.788;8.824;2022-09-09T07:16:23;3.40;;;1.10;;
74612;SDS011;63119;51.788;8.824;2022-09-09T07:18:49;3.08;;;1.30;;
74612;SDS011;63119;51.788;8.824;2022-09-09T07:21:15;5.13;;;1.60;;
74612;SDS011;63119;51.788;8.824;2022-09-09T07:23:42;4.60;;;1.52;;
74612;SDS011;63119;51.788;8.824;2022-09-09T07:26:11;5.75;;;1.52;;
74612;SDS011;63119;51.788;8.824;2022-09-09T07:28:39;3.00;;;1.20;;
74612;SDS011;63119;51.788;8.824;2022-09-09T07:31:05;5.40;;;1.38;;
74612;SDS011;63119;51.788;8.824;2022-09-09T07:33:34;2.70;;;1.13;;
74612;SDS011;63119;51.788;8.824;2022-09-09T07:36:04;5.60;;;1.45;;
74612;SDS011;63119;51.788;8.824;2022-09-09T07:38:37;5.93;;;1.38;;
74612;SDS011;63119;51.788;8.824;2022-09-09T07:41:06;4.85;;;1.27;;
74612;SDS011;63119;51.788;8.824;2022-09-09T07:43:37;4.50;;;1.10;;
74612;SDS011;63119;51.788;8.824;2022-09-09T07:46:03;4.75;;;1.45;;
74612;SDS011;63119;51.788;8.824;2022-09-09T07:48:29;5.55;;;1.88;;
74612;SDS011;63119;51.788;8.824;2022-09-09T07:51:02;3.97;;;1.37;;
74612;SDS011;63119;51.788;8.824;2022-09-09T07:53:29;3.15;;;1.17;;
74612;SDS011;63119;51.788;8.824;2022-09-09T07:56:01;4.10;;;1.02;;
74612;SDS011;63119;51.788;8.824;2022-09-09T07:58:36;4.32;;;1.20;;
74612;SDS011;63119;51.788;8.824;2022-09-09T08:01:09;4.13;;;1.20;;
74612;SDS011;63119;51.788;8.824;2022-09-09T08:03:40;6.78;;;1.35;;
74612;SDS011;63119;51.788;8.824;2022-09-09T08:06:06;7.07;;;1.45;;
74612;SDS011;63119;51.788;8.824;2022-09-09T08:08:34;4.20;;;1.60;;
74612;SDS011;63119;51.788;8.824;2022-09-09T08:11:04;5.30;;;1.10;;
74612;SDS011;63119;51.788;8.824;2022-09-09T08:13:36;4.35;;;1.27;;
74612;SDS011;63119;51.788;8.824;2022-09-09T08:16:13;2.40;;;1.10;;
74612;SDS011;63119;51.788;8.824;2022-09-09T08:18:41;3.95;;;1.27;;
74612;SDS011;63119;51.788;8.824;2022-09-09T08:23:37;4.60;;;1.65;;
74612;SDS011;63119;51.788;8.824;2022-09-09T08:26:05;4.53;;;1.60;;
74612;SDS011;63119;51.788;8.824;2022-09-09T08:28:32;5.90;;;1.55;;
74612;SDS011;63119;51.788;8.824;2022-09-09T08:31:14;2.20;;;0.93;;
74612;SDS011;63119;51.788;8.824;2022-09-09T08:33:41;2.63;;;0.95;;
74612;SDS011;63119;51.788;8.824;2022-09-09T08:36:11;3.60;;;0.70;;
74612;SDS011;63119;51.788;8.824;2022-09-09T08:38:40;2.72;;;0.90;;
74612;SDS011;63119;51.788;8.824;2022-09-09T08:47:28;2.60;;;0.70;;
74612;SDS011;63119;51.788;8.824;2022-09-09T08:57:55;2.83;;;0.85;;
74612;SDS011;63119;51.788;8.824;2022-09-09T09:00:22;1.20;;;0.60;;
74612;SDS011;63119;51.788;8.824;2022-09-09T09:06:04;3.50;;;0.80;;
74612;SDS011;63119;51.788;8.824;2022-09-09T09:08:46;3.90;;;0.80;;
74612;SDS011;63119;51.788;8.824;2022-09-09T09:11:21;1.58;;;0.70;;
74612;SDS011;63119;51.788;8.824;2022-09-09T09:13:58;3.75;;;0.77;;
74612;SDS011;63119;51.788;8.824;2022-09-09T09:16:32;2.15;;;0.98;;
74612;SDS011;63119;51.788;8.824;2022-09-09T09:19:03;2.50;;;0.90;;
74612;SDS011;63119;51.788;8.824;2022-09-09T09:21:39;2.47;;;0.80;;
74612;SDS011;63119;51.788;8.824;2022-09-09T09:24:19;3.03;;;0.63;;
74612;SDS011;63119;51.788;8.824;2022-09-09T09:26:47;2.90;;;0.80;;
74612;SDS011;63119;51.788;8.824;2022-09-09T09:29:13;3.00;;;0.85;;
74612;SDS011;63119;51.788;8.824;2022-09-09T09:31:54;5.15;;;0.90;;
74612;SDS011;63119;51.788;8.824;2022-09-09T09:34:21;3.90;;;1.00;;
74612;SDS011;63119;51.788;8.824;2022-09-09T09:36:55;3.20;;;0.60;;
74612;SDS011;63119;51.788;8.824;2022-09-09T09:39:23;4.45;;;1.13;;
74612;SDS011;63119;51.788;8.824;2022-09-09T09:41:53;2.08;;;1.00;;
74612;SDS011;63119;51.788;8.824;2022-09-09T09:44:23;3.38;;;0.95;;
74612;SDS011;63119;51.788;8.824;2022-09-09T09:47:12;3.40;;;0.98;;
74612;SDS011;63119;51.788;8.824;2022-09-09T09:49:51;3.40;;;1.00;;
74612;SDS011;63119;51.788;8.824;2022-09-09T09:52:20;4.15;;;1.33;;
74612;SDS011;63119;51.788;8.824;2022-09-09T09:54:48;3.88;;;1.00;;
74612;SDS011;63119;51.788;8.824;2022-09-09T09:57:15;3.13;;;0.80;;
74612;SDS011;63119;51.788;8.824;2022-09-09T09:59:42;3.53;;;0.93;;
74612;SDS011;63119;51.788;8.824;2022-09-09T10:02:13;2.95;;;0.90;;
74612;SDS011;63119;51.788;8.824;2022-09-09T10:04:38;2.45;;;0.70;;
74612;SDS011;63119;51.788;8.824;2022-09-09T10:07:17;2.83;;;0.70;;
74612;SDS011;63119;51.788;8.824;2022-09-09T10:09:43;2.95;;;0.77;;
74612;SDS011;63119;51.788;8.824;2022-09-09T10:13:11;4.47;;;1.00;;
74612;SDS011;63119;51.788;8.824;2022-09-09T10:20:32;4.90;;;1.15;;
74612;SDS011;63119;51.788;8.824;2022-09-09T10:23:13;2.28;;;0.85;;
74612;SDS011;63119;51.788;8.824;2022-09-09T10:25:56;3.55;;;1.00;;
74612;SDS011;63119;51.788;8.824;2022-09-09T10:28:30;3.83;;;0.70;;
74612;SDS011;63119;51.788;8.824;2022-09-09T10:36:28;1.60;;;0.70;;
74612;SDS011;63119;51.788;8.824;2022-09-09T10:41:31;3.95;;;0.90;;
74612;SDS011;63119;51.788;8.824;2022-09-09T10:49:43;4.85;;;0.70;;
74612;SDS011;63119;51.788;8.824;2022-09-09T10:52:31;5.30;;;1.00;;
74612;SDS011;63119;51.788;8.824;2022-09-09T10:57:44;1.70;;;0.73;;
74612;SDS011;63119;51.788;8.824;2022-09-09T11:00:17;4.68;;;0.80;;
74612;SDS011;63119;51.788;8.824;2022-09-09T11:02:45;6.28;;;1.20;;
74612;SDS011;63119;51.788;8.824;2022-09-09T11:05:17;3.35;;;0.80;;
74612;SDS011;63119;51.788;8.824;2022-09-09T11:13:09;3.47;;;0.80;;
74612;SDS011;63119;51.788;8.824;2022-09-09T11:15:50;6.65;;;0.93;;
74612;SDS011;63119;51.788;8.824;2022-09-09T11:18:21;4.88;;;1.08;;
74612;SDS011;63119;51.788;8.824;2022-09-09T11:20:49;4.35;;;0.80;;
74612;SDS011;63119;51.788;8.824;2022-09-09T11:23:22;4.05;;;0.80;;
74612;SDS011;63119;51.788;8.824;2022-09-09T11:25:54;2.85;;;0.80;;
74612;SDS011;63119;51.788;8.824;2022-09-09T11:36:26;2.95;;;0.68;;
74612;SDS011;63119;51.788;8.824;2022-09-09T11:44:51;3.63;;;0.80;;
74612;SDS011;63119;51.788;8.824;2022-09-09T11:47:26;1.38;;;0.68;;
74612;SDS011;63119;51.788;8.824;2022-09-09T11:52:40;3.60;;;0.85;;
74612;SDS011;63119;51.788;8.824;2022-09-09T11:55:11;2.92;;;0.60;;
74612;SDS011;63119;51.788;8.824;2022-09-09T11:57:57;4.32;;;1.23;;
74612;SDS011;63119;51.788;8.824;2022-09-09T12:00:37;1.90;;;0.55;;
74612;SDS011;63119;51.788;8.824;2022-09-09T12:03:55;4.15;;;0.80;;
74612;SDS011;63119;51.788;8.824;2022-09-09T12:08:57;1.42;;;0.50;;
74612;SDS011;63119;51.788;8.824;2022-09-09T12:11:31;5.20;;;1.08;;
74612;SDS011;63119;51.788;8.824;2022-09-09T12:13:57;2.07;;;0.60;;
74612;SDS011;63119;51.788;8.824;2022-09-09T12:21:44;2.17;;;0.63;;
74612;SDS011;63119;51.788;8.824;2022-09-09T12:24:45;3.05;;;0.90;;
74612;SDS011;63119;51.788;8.824;2022-09-09T12:27:24;4.70;;;0.80;;
74612;SDS011;63119;51.788;8.824;2022-09-09T12:29:55;4.85;;;0.80;;
74612;SDS011;63119;51.788;8.824;2022-09-09T12:32:29;4.63;;;0.90;;
74612;SDS011;63119;51.788;8.824;2022-09-09T12:34:55;2.42;;;0.90;;
74612;SDS011;63119;51.788;8.824;2022-09-09T12:37:32;4.05;;;0.93;;
74612;SDS011;63119;51.788;8.824;2022-09-09T12:40:01;4.82;;;1.00;;
74612;SDS011;63119;51.788;8.824;2022-09-09T12:42:40;3.78;;;0.95;;
74612;SDS011;63119;51.788;8.824;2022-09-09T12:45:14;2.80;;;0.70;;
74612;SDS011;63119;51.788;8.824;2022-09-09T12:47:55;3.00;;;1.10;;
74612;SDS011;63119;51.788;8.824;2022-09-09T12:50:26;4.65;;;0.70;;
74612;SDS011;63119;51.788;8.824;2022-09-09T12:52:54;3.90;;;0.98;;
74612;SDS011;63119;51.788;8.824;2022-09-09T12:55:32;4.53;;;1.17;;
74612;SDS011;63119;51.788;8.824;2022-09-09T12:58:01;4.25;;;0.82;;
74612;SDS011;63119;51.788;8.824;2022-09-09T13:00:30;4.25;;;1.10;;
74612;SDS011;63119;51.788;8.824;2022-09-09T13:02:57;3.38;;;0.70;;
74612;SDS011;63119;51.788;8.824;2022-09-09T13:05:25;2.17;;;0.80;;
74612;SDS011;63119;51.788;8.824;2022-09-09T13:07:59;5.70;;;0.95;;
74612;SDS011;63119;51.788;8.824;2022-09-09T13:10:29;4.70;;;0.95;;
74612;SDS011;63119;51.788;8.824;2022-09-09T13:12:58;4.30;;;0.90;;
74612;SDS011;63119;51.788;8.824;2022-09-09T13:15:25;3.03;;;0.70;;
74612;SDS011;63119;51.788;8.824;2022-09-09T13:18:00;2.90;;;1.00;;
74612;SDS011;63119;51.788;8.824;2022-09-09T13:20:31;2.65;;;0.63;;
74612;SDS011;63119;51.788;8.824;2022-09-09T13:22:56;6.15;;;0.80;;
74612;SDS011;63119;51.788;8.824;2022-09-09T13:25:29;3.30;;;0.80;;
74612;SDS011;63119;51.788;8.824;2022-09-09T13:28:04;1.90;;;0.52;;
74612;SDS011;63119;51.788;8.824;2022-09-09T13:30:31;4.20;;;0.90;;
74612;SDS011;63119;51.788;8.824;2022-09-09T13:35:49;4.32;;;0.80;;
74612;SDS011;63119;51.788;8.824;2022-09-09T13:38:18;3.88;;;0.80;;
74612;SDS011;63119;51.788;8.824;2022-09-09T13:40:57;2.92;;;0.70;;
74612;SDS011;63119;51.788;8.824;2022-09-09T13:43:23;2.88;;;0.82;;
74612;SDS011;63119;51.788;8.824;2022-09-09T13:48:26;2.92;;;0.82;;
74612;SDS011;63119;51.788;8.824;2022-09-09T13:50:59;2.40;;;0.90;;
74612;SDS011;63119;51.788;8.824;2022-09-09T13:53:31;1.85;;;0.60;;
74612;SDS011;63119;51.788;8.824;2022-09-09T13:55:57;3.08;;;0.68;;
74612;SDS011;63119;51.788;8.824;2022-09-09T13:58:23;1.65;;;0.60;;
74612;SDS011;63119;51.788;8.824;2022-09-09T14:00:50;3.05;;;0.75;;
74612;SDS011;63119;51.788;8.824;2022-09-09T14:03:16;3.83;;;1.00;;
74612;SDS011;63119;51.788;8.824;2022-09-09T14:05:42;2.30;;;0.80;;
74612;SDS011;63119;51.788;8.824;2022-09-09T14:08:09;2.90;;;0.80;;
74612;SDS011;63119;51.788;8.824;2022-09-09T14:10:45;1.63;;;0.60;;
74612;SDS011;63119;51.788;8.824;2022-09-09T14:13:10;3.83;;;1.00;;
74612;SDS011;63119;51.788;8.824;2022-09-09T14:15:37;1.55;;;0.63;;
74612;SDS011;63119;51.788;8.824;2022-09-09T14:18:02;1.73;;;0.85;;
74612;SDS011;63119;51.788;8.824;2022-09-09T14:20:27;1.75;;;0.57;;
74612;SDS011;63119;51.788;8.824;2022-09-09T14:22:53;1.60;;;0.50;;
74612;SDS011;63119;51.788;8.824;2022-09-09T14:25:18;4.70;;;0.98;;
74612;SDS011;63119;51.788;8.824;2022-09-09T14:27:43;1.35;;;0.55;;
74612;SDS011;63119;51.788;8.824;2022-09-09T14:30:10;2.08;;;0.60;;
74612;SDS011;63119;51.788;8.824;2022-09-09T14:32:36;2.70;;;0.98;;
74612;SDS011;63119;51.788;8.824;2022-09-09T14:35:01;1.43;;;0.50;;
74612;SDS011;63119;51.788;8.824;2022-09-09T14:37:27;2.40;;;0.68;;
74612;SDS011;63119;51.788;8.824;2022-09-09T14:39:52;1.90;;;0.70;;
74612;SDS011;63119;51.788;8.824;2022-09-09T14:42:18;4.18;;;0.90;;
74612;SDS011;63119;51.788;8.824;2022-09-09T14:44:44;2.90;;;0.95;;
74612;SDS011;63119;51.788;8.824;2022-09-09T14:47:09;2.47;;;0.80;;
74612;SDS011;63119;51.788;8.824;2022-09-09T14:49:35;4.07;;;1.00;;
74612;SDS011;63119;51.788;8.824;2022-09-09T14:52:01;3.00;;;0.57;;
74612;SDS011;63119;51.788;8.824;2022-09-09T14:54:27;2.28;;;0.80;;
74612;SDS011;63119;51.788;8.824;2022-09-09T14:56:53;3.13;;;1.17;;
74612;SDS011;63119;51.788;8.824;2022-09-09T14:59:18;2.80;;;0.70;;
74612;SDS011;63119;51.788;8.824;2022-09-09T15:01:43;2.17;;;0.70;;
74612;SDS011;63119;51.788;8.824;2022-09-09T15:04:10;1.93;;;0.70;;
74612;SDS011;63119;51.788;8.824;2022-09-09T15:06:37;1.42;;;0.60;;
74612;SDS011;63119;51.788;8.824;2022-09-09T15:09:04;1.02;;;0.60;;
74612;SDS011;63119;51.788;8.824;2022-09-09T15:11:30;2.85;;;0.70;;
74612;SDS011;63119;51.788;8.824;2022-09-09T15:14:02;2.63;;;1.05;;
74612;SDS011;63119;51.788;8.824;2022-09-09T15:16:27;3.05;;;1.02;;
74612;SDS011;63119;51.788;8.824;2022-09-09T15:18:54;1.35;;;0.63;;
74612;SDS011;63119;51.788;8.824;2022-09-09T15:21:22;3.47;;;0.90;;
74612;SDS011;63119;51.788;8.824;2022-09-09T15:26:14;2.97;;;0.80;;
74612;SDS011;63119;51.788;8.824;2022-09-09T15:28:40;3.90;;;1.00;;
74612;SDS011;63119;51.788;8.824;2022-09-09T15:31:12;3.95;;;0.88;;
74612;SDS011;63119;51.788;8.824;2022-09-09T15:33:45;1.75;;;0.70;;
74612;SDS011;63119;51.788;8.824;2022-09-09T15:38:47;2.35;;;0.80;;
74612;SDS011;63119;51.788;8.824;2022-09-09T15:41:13;3.13;;;0.63;;
74612;SDS011;63119;51.788;8.824;2022-09-09T15:43:39;3.13;;;0.80;;
74612;SDS011;63119;51.788;8.824;2022-09-09T15:48:43;2.45;;;0.65;;
74612;SDS011;63119;51.788;8.824;2022-09-09T15:51:09;3.75;;;0.70;;
74612;SDS011;63119;51.788;8.824;2022-09-09T15:53:35;3.15;;;0.80;;
74612;SDS011;63119;51.788;8.824;2022-09-09T15:56:02;3.60;;;1.10;;
74612;SDS011;63119;51.788;8.824;2022-09-09T15:58:29;2.93;;;0.80;;
74612;SDS011;63119;51.788;8.824;2022-09-09T16:01:01;3.25;;;0.85;;
74612;SDS011;63119;51.788;8.824;2022-09-09T16:03:36;4.25;;;0.88;;
74612;SDS011;63119;51.788;8.824;2022-09-09T16:06:03;4.38;;;1.40;;
74612;SDS011;63119;51.788;8.824;2022-09-09T16:08:33;5.70;;;2.00;;
74612;SDS011;63119;51.788;8.824;2022-09-09T16:11:06;2.97;;;0.90;;
74612;SDS011;63119;51.788;8.824;2022-09-09T16:13:34;3.53;;;0.88;;
74612;SDS011;63119;51.788;8.824;2022-09-09T16:16:00;4.43;;;1.20;;
74612;SDS011;63119;51.788;8.824;2022-09-09T16:18:26;3.55;;;1.20;;
74612;SDS011;63119;51.788;8.824;2022-09-09T16:20:54;4.03;;;1.20;;
74612;SDS011;63119;51.788;8.824;2022-09-09T16:23:20;2.88;;;1.05;;
74612;SDS011;63119;51.788;8.824;2022-09-09T16:25:52;3.47;;;1.17;;
74612;SDS011;63119;51.788;8.824;2022-09-09T16:28:18;4.35;;;0.93;;
74612;SDS011;63119;51.788;8.824;2022-09-09T16:30:44;3.40;;;1.10;;
74612;SDS011;63119;51.788;8.824;2022-09-09T16:33:09;4.17;;;1.10;;
74612;SDS011;63119;51.788;8.824;2022-09-09T16:35:38;3.58;;;0.82;;
74612;SDS011;63119;51.788;8.824;2022-09-09T16:38:03;4.85;;;0.90;;
74612;SDS011;63119;51.788;8.824;2022-09-09T16:40:29;3.83;;;0.80;;
74612;SDS011;63119;51.788;8.824;2022-09-09T16:42:55;2.70;;;0.90;;
74612;SDS011;63119;51.788;8.824;2022-09-09T16:45:20;3.77;;;0.90;;
74612;SDS011;63119;51.788;8.824;2022-09-09T16:47:46;2.60;;;0.70;;
74612;SDS011;63119;51.788;8.824;2022-09-09T16:50:13;2.30;;;0.77;;
74612;SDS011;63119;51.788;8.824;2022-09-09T16:52:38;5.82;;;1.20;;
74612;SDS011;63119;51.788;8.824;2022-09-09T16:55:04;2.37;;;0.70;;
74612;SDS011;63119;51.788;8.824;2022-09-09T16:57:30;3.03;;;0.88;;
74612;SDS011;63119;51.788;8.824;2022-09-09T16:59:55;2.25;;;1.02;;
74612;SDS011;63119;51.788;8.824;2022-09-09T17:02:24;3.58;;;1.20;;
74612;SDS011;63119;51.788;8.824;2022-09-09T17:04:49;2.57;;;0.90;;
74612;SDS011;63119;51.788;8.824;2022-09-09T17:07:14;4.27;;;0.90;;
74612;SDS011;63119;51.788;8.824;2022-09-09T17:09:39;3.17;;;0.80;;
74612;SDS011;63119;51.788;8.824;2022-09-09T17:12:05;4.07;;;0.90;;
74612;SDS011;63119;51.788;8.824;2022-09-09T17:14:31;2.00;;;0.80;;
74612;SDS011;63119;51.788;8.824;2022-09-09T17:16:56;1.88;;;0.90;;
74612;SDS011;63119;51.788;8.824;2022-09-09T17:19:22;1.80;;;0.80;;
74612;SDS011;63119;51.788;8.824;2022-09-09T17:21:47;3.20;;;1.30;;
74612;SDS011;63119;51.788;8.824;2022-09-09T17:24:13;4.27;;;1.20;;